CSN6047 VHHH-ZYTL
Flight info
| Callsign | CSN6047 |
|---|---|
| Flight time | 3h 5m |
| Altitude | 33000 |
| Route | LEKE1A LEKEN V601 DOTMI A470 LJG B221 DST W117 BEGMO W13 PINOT B221 XDX W174 FD W172 IGDEG W173 NIXEP NIX17A |
| Aircraft | A21N/M-SDE3FGHIRWY/LB1 |
Departure
| Time | 2026-05-07 11:40 |
|---|---|
| Airport | Hong Kong International Airport (VHHH) |
Arrival
| Time | 2026-05-07 14:45 |
|---|---|
| Airport | Dalian Zhoushuizi International Airport (ZYTL) |
| Time | Latitude | Longitude | Altitude | Speed | Heading |
|---|---|---|---|---|---|
| 2026-05-07 11:11 | 22.31366 | 113.92474 | 31 ft | 0 kts | 26° |
| 2026-05-07 11:25 | 22.31365 | 113.92474 | 32 ft | 1 kts | 26° |
| 2026-05-07 11:26 | 22.31352 | 113.92467 | 32 ft | 2 kts | 26° |
| 2026-05-07 11:26 | 22.31338 | 113.92460 | 32 ft | 2 kts | 26° |
| 2026-05-07 11:26 | 22.31325 | 113.92452 | 32 ft | 2 kts | 26° |
| 2026-05-07 11:26 | 22.31311 | 113.92445 | 32 ft | 2 kts | 26° |
| 2026-05-07 11:27 | 22.31299 | 113.92436 | 32 ft | 2 kts | 53° |
| 2026-05-07 11:27 | 22.31292 | 113.92422 | 32 ft | 2 kts | 73° |
| 2026-05-07 11:27 | 22.31290 | 113.92406 | 32 ft | 2 kts | 94° |
| 2026-05-07 11:27 | 22.31292 | 113.92391 | 32 ft | 0 kts | 113° |
| 2026-05-07 11:28 | 22.31295 | 113.92384 | 32 ft | 1 kts | 117° |
| 2026-05-07 11:28 | 22.31296 | 113.92384 | 32 ft | 0 kts | 117° |
| 2026-05-07 11:29 | 22.31294 | 113.92388 | 32 ft | 0 kts | 117° |
| 2026-05-07 11:29 | 22.31290 | 113.92396 | 32 ft | 1 kts | 117° |
| 2026-05-07 11:30 | 22.31283 | 113.92409 | 32 ft | 2 kts | 117° |
| 2026-05-07 11:30 | 22.31275 | 113.92426 | 32 ft | 2 kts | 118° |
| 2026-05-07 11:30 | 22.31272 | 113.92433 | 32 ft | 0 kts | 118° |
| 2026-05-07 11:31 | 22.31271 | 113.92433 | 32 ft | 0 kts | 118° |
| 2026-05-07 11:31 | 22.31266 | 113.92446 | 32 ft | 4 kts | 115° |
| 2026-05-07 11:31 | 22.31241 | 113.92492 | 32 ft | 9 kts | 134° |
| 2026-05-07 11:31 | 22.31163 | 113.92494 | 32 ft | 14 kts | 201° |
| 2026-05-07 11:32 | 22.30927 | 113.92373 | 32 ft | 22 kts | 206° |
| 2026-05-07 11:32 | 22.30771 | 113.92334 | 32 ft | 22 kts | 171° |
| 2026-05-07 11:32 | 22.30690 | 113.92252 | 32 ft | 17 kts | 250° |
| 2026-05-07 11:33 | 22.30648 | 113.92127 | 32 ft | 19 kts | 251° |
| 2026-05-07 11:33 | 22.30602 | 113.91981 | 32 ft | 20 kts | 252° |
| 2026-05-07 11:33 | 22.30553 | 113.91827 | 32 ft | 22 kts | 250° |
| 2026-05-07 11:33 | 22.30498 | 113.91660 | 31 ft | 23 kts | 251° |
| 2026-05-07 11:34 | 22.30442 | 113.91486 | 31 ft | 25 kts | 251° |
| 2026-05-07 11:34 | 22.30384 | 113.91305 | 32 ft | 26 kts | 251° |
| 2026-05-07 11:34 | 22.30325 | 113.91121 | 32 ft | 25 kts | 251° |
| 2026-05-07 11:34 | 22.30268 | 113.90945 | 32 ft | 24 kts | 251° |
| 2026-05-07 11:35 | 22.30214 | 113.90777 | 31 ft | 22 kts | 250° |
| 2026-05-07 11:35 | 22.30163 | 113.90620 | 32 ft | 21 kts | 250° |
| 2026-05-07 11:35 | 22.30113 | 113.90464 | 31 ft | 22 kts | 251° |
| 2026-05-07 11:35 | 22.30060 | 113.90301 | 31 ft | 23 kts | 250° |
| 2026-05-07 11:36 | 22.30007 | 113.90137 | 32 ft | 23 kts | 251° |
| 2026-05-07 11:36 | 22.29952 | 113.89967 | 31 ft | 24 kts | 251° |
| 2026-05-07 11:36 | 22.29894 | 113.89794 | 31 ft | 24 kts | 249° |
| 2026-05-07 11:36 | 22.29759 | 113.89758 | 31 ft | 22 kts | 163° |
| 2026-05-07 11:37 | 22.29651 | 113.89852 | 32 ft | 20 kts | 100° |
| 2026-05-07 11:37 | 22.29657 | 113.89915 | 31 ft | 0 kts | 72° |
| 2026-05-07 11:39 | 22.29665 | 113.89940 | 31 ft | 19 kts | 71° |
| 2026-05-07 11:39 | 22.29793 | 113.90342 | 32 ft | 91 kts | 71° |
| 2026-05-07 11:40 | 22.30073 | 113.91213 | 32 ft | 151 kts | 71° |
| 2026-05-07 11:40 | 22.30478 | 113.92448 | 175 ft | 186 kts | 72° |
| 2026-05-07 11:40 | 22.30924 | 113.93806 | 607 ft | 199 kts | 72° |
| 2026-05-07 11:40 | 22.31379 | 113.95203 | 1336 ft | 200 kts | 73° |
| 2026-05-07 11:41 | 22.31851 | 113.96679 | 1860 ft | 212 kts | 73° |
| 2026-05-07 11:41 | 22.32335 | 113.98203 | 2381 ft | 218 kts | 73° |
| 2026-05-07 11:41 | 22.32831 | 113.99764 | 2943 ft | 222 kts | 72° |
| 2026-05-07 11:41 | 22.33339 | 114.01347 | 3521 ft | 224 kts | 72° |
| 2026-05-07 11:42 | 22.33806 | 114.02972 | 4097 ft | 226 kts | 81° |
| 2026-05-07 11:42 | 22.33776 | 114.04675 | 4649 ft | 227 kts | 103° |
| 2026-05-07 11:42 | 22.33187 | 114.06241 | 5167 ft | 229 kts | 123° |
| 2026-05-07 11:42 | 22.32112 | 114.07513 | 5676 ft | 231 kts | 142° |
| 2026-05-07 11:43 | 22.30682 | 114.08398 | 5951 ft | 247 kts | 161° |
| 2026-05-07 11:43 | 22.28954 | 114.08780 | 6261 ft | 260 kts | 179° |
| 2026-05-07 11:43 | 22.27080 | 114.08780 | 6592 ft | 275 kts | 182° |
| 2026-05-07 11:43 | 22.25104 | 114.08735 | 7108 ft | 283 kts | 182° |
| 2026-05-07 11:44 | 22.23136 | 114.08697 | 7739 ft | 285 kts | 182° |
| 2026-05-07 11:44 | 22.21117 | 114.08669 | 8371 ft | 288 kts | 182° |
| 2026-05-07 11:44 | 22.19106 | 114.08648 | 8972 ft | 291 kts | 181° |
| 2026-05-07 11:44 | 22.17098 | 114.08964 | 9494 ft | 297 kts | 159° |
| 2026-05-07 11:45 | 22.15399 | 114.10225 | 10036 ft | 302 kts | 132° |
| 2026-05-07 11:45 | 22.14262 | 114.12161 | 10428 ft | 313 kts | 117° |
| 2026-05-07 11:45 | 22.13282 | 114.14323 | 10683 ft | 327 kts | 116° |
| 2026-05-07 11:45 | 22.12258 | 114.16581 | 10933 ft | 341 kts | 117° |
| 2026-05-07 11:46 | 22.11165 | 114.18934 | 11174 ft | 355 kts | 117° |
| 2026-05-07 11:46 | 22.10025 | 114.21347 | 11412 ft | 367 kts | 117° |
| 2026-05-07 11:46 | 22.08849 | 114.23798 | 11801 ft | 374 kts | 120° |
| 2026-05-07 11:46 | 22.07611 | 114.26268 | 12285 ft | 378 kts | 112° |
| 2026-05-07 11:47 | 22.06974 | 114.29030 | 12769 ft | 381 kts | 98° |
| 2026-05-07 11:47 | 22.06650 | 114.31853 | 13286 ft | 383 kts | 96° |
| 2026-05-07 11:47 | 22.06316 | 114.34724 | 13743 ft | 387 kts | 97° |
| 2026-05-07 11:47 | 22.05920 | 114.37587 | 14210 ft | 390 kts | 99° |
| 2026-05-07 11:48 | 22.05468 | 114.40476 | 14663 ft | 393 kts | 100° |
| 2026-05-07 11:48 | 22.04983 | 114.43354 | 15104 ft | 395 kts | 101° |
| 2026-05-07 11:48 | 22.04472 | 114.46262 | 15534 ft | 398 kts | 101° |
| 2026-05-07 11:48 | 22.03944 | 114.49200 | 15952 ft | 401 kts | 101° |
| 2026-05-07 11:49 | 22.03402 | 114.52163 | 16350 ft | 404 kts | 101° |
| 2026-05-07 11:49 | 22.02855 | 114.55142 | 16734 ft | 407 kts | 101° |
| 2026-05-07 11:49 | 22.02301 | 114.58151 | 17117 ft | 410 kts | 101° |
| 2026-05-07 11:49 | 22.01747 | 114.61147 | 17479 ft | 413 kts | 101° |
| 2026-05-07 11:50 | 22.01184 | 114.64188 | 17849 ft | 416 kts | 101° |
| 2026-05-07 11:50 | 22.00610 | 114.67281 | 18247 ft | 418 kts | 101° |
| 2026-05-07 11:50 | 22.00042 | 114.70341 | 18621 ft | 420 kts | 101° |
| 2026-05-07 11:50 | 21.99464 | 114.73451 | 19003 ft | 422 kts | 101° |
| 2026-05-07 11:51 | 21.98884 | 114.76569 | 19366 ft | 425 kts | 101° |
| 2026-05-07 11:51 | 21.98298 | 114.79719 | 19705 ft | 427 kts | 101° |
| 2026-05-07 11:51 | 21.97721 | 114.82816 | 20049 ft | 430 kts | 101° |
| 2026-05-07 11:51 | 21.97129 | 114.85987 | 20395 ft | 432 kts | 101° |
| 2026-05-07 11:52 | 21.96532 | 114.89181 | 20735 ft | 434 kts | 101° |
| 2026-05-07 11:52 | 21.95938 | 114.92350 | 21064 ft | 436 kts | 101° |
| 2026-05-07 11:52 | 21.95334 | 114.95577 | 21392 ft | 439 kts | 101° |
| 2026-05-07 11:52 | 21.94729 | 114.98803 | 21708 ft | 441 kts | 101° |
| 2026-05-07 11:53 | 21.94128 | 115.02009 | 22000 ft | 444 kts | 101° |
| 2026-05-07 11:53 | 21.93509 | 115.05308 | 22302 ft | 446 kts | 101° |
| 2026-05-07 11:53 | 21.92900 | 115.08548 | 22582 ft | 449 kts | 101° |
| 2026-05-07 11:53 | 21.92271 | 115.11887 | 22881 ft | 452 kts | 101° |
| 2026-05-07 11:54 | 21.91645 | 115.15205 | 23201 ft | 453 kts | 101° |
| 2026-05-07 11:54 | 21.91020 | 115.18514 | 23510 ft | 455 kts | 101° |
| 2026-05-07 11:54 | 21.90388 | 115.21857 | 23817 ft | 456 kts | 101° |
| 2026-05-07 11:54 | 21.89877 | 115.25250 | 24113 ft | 457 kts | 96° |
| 2026-05-07 11:55 | 21.89615 | 115.28656 | 24398 ft | 459 kts | 91° |
| 2026-05-07 11:55 | 21.89596 | 115.32072 | 24667 ft | 460 kts | 87° |
| 2026-05-07 11:55 | 21.89698 | 115.35557 | 24932 ft | 462 kts | 86° |
| 2026-05-07 11:55 | 21.89820 | 115.38998 | 25190 ft | 464 kts | 86° |
| 2026-05-07 11:56 | 21.89938 | 115.42454 | 25455 ft | 465 kts | 86° |
| 2026-05-07 11:56 | 21.90050 | 115.45947 | 25700 ft | 467 kts | 86° |
| 2026-05-07 11:56 | 21.90155 | 115.49456 | 25933 ft | 469 kts | 86° |
| 2026-05-07 11:56 | 21.90257 | 115.52959 | 26164 ft | 471 kts | 86° |
| 2026-05-07 11:57 | 21.90358 | 115.56475 | 26413 ft | 472 kts | 86° |
| 2026-05-07 11:57 | 21.90529 | 115.60007 | 26633 ft | 474 kts | 84° |
| 2026-05-07 11:57 | 21.90885 | 115.63503 | 26832 ft | 475 kts | 80° |
| 2026-05-07 11:57 | 21.91450 | 115.67047 | 27057 ft | 475 kts | 77° |
| 2026-05-07 11:58 | 21.92143 | 115.70525 | 27276 ft | 476 kts | 76° |
| 2026-05-07 11:58 | 21.92851 | 115.73968 | 27486 ft | 478 kts | 76° |
| 2026-05-07 11:58 | 21.93568 | 115.77449 | 27691 ft | 479 kts | 76° |
| 2026-05-07 11:58 | 21.94289 | 115.80970 | 27925 ft | 478 kts | 76° |
| 2026-05-07 11:59 | 21.94984 | 115.84399 | 28638 ft | 466 kts | 76° |
| 2026-05-07 11:59 | 21.95660 | 115.87753 | 29389 ft | 454 kts | 76° |
| 2026-05-07 11:59 | 21.96316 | 115.91016 | 30148 ft | 441 kts | 75° |
| 2026-05-07 11:59 | 21.96956 | 115.94205 | 30759 ft | 432 kts | 75° |
| 2026-05-07 12:00 | 21.97594 | 115.97358 | 30775 ft | 439 kts | 75° |
| 2026-05-07 12:00 | 21.98916 | 116.03899 | 30785 ft | 451 kts | 75° |
| 2026-05-07 12:00 | 21.99607 | 116.07195 | 31008 ft | 449 kts | 71° |
| 2026-05-07 12:01 | 22.00727 | 116.10270 | 31627 ft | 433 kts | 58° |
| 2026-05-07 12:01 | 22.02335 | 116.12917 | 32099 ft | 421 kts | 46° |
| 2026-05-07 12:01 | 22.04380 | 116.15147 | 32121 ft | 419 kts | 34° |
| 2026-05-07 12:01 | 22.06805 | 116.16881 | 32127 ft | 417 kts | 23° |
| 2026-05-07 12:02 | 22.09461 | 116.18059 | 32132 ft | 416 kts | 12° |
| 2026-05-07 12:02 | 22.12316 | 116.18667 | 32213 ft | 413 kts | 1° |
| 2026-05-07 12:02 | 22.15130 | 116.18716 | 32735 ft | 402 kts | 355° |
| 2026-05-07 12:02 | 22.17934 | 116.18632 | 32910 ft | 404 kts | 355° |
| 2026-05-07 12:03 | 22.20796 | 116.18527 | 32914 ft | 409 kts | 355° |
| 2026-05-07 12:03 | 22.26578 | 116.18321 | 32923 ft | 419 kts | 355° |
| 2026-05-07 12:04 | 22.32515 | 116.18119 | 32925 ft | 429 kts | 355° |
| 2026-05-07 12:04 | 22.38535 | 116.17921 | 32927 ft | 438 kts | 355° |
| 2026-05-07 12:05 | 22.44719 | 116.17718 | 32926 ft | 446 kts | 355° |
| 2026-05-07 12:05 | 22.51010 | 116.17513 | 32925 ft | 454 kts | 355° |
| 2026-05-07 12:06 | 22.57338 | 116.17307 | 32924 ft | 455 kts | 355° |
| 2026-05-07 12:06 | 22.63694 | 116.17253 | 32996 ft | 458 kts | 0° |
| 2026-05-07 12:07 | 22.70025 | 116.18407 | 33019 ft | 464 kts | 12° |
| 2026-05-07 12:07 | 22.76065 | 116.20956 | 33017 ft | 469 kts | 24° |
| 2026-05-07 12:08 | 22.81603 | 116.24841 | 33022 ft | 474 kts | 33° |
| 2026-05-07 12:08 | 22.86824 | 116.29202 | 33021 ft | 474 kts | 34° |
| 2026-05-07 12:09 | 22.92059 | 116.33591 | 33016 ft | 474 kts | 34° |
| 2026-05-07 12:09 | 22.97296 | 116.37937 | 33017 ft | 474 kts | 33° |
| 2026-05-07 12:10 | 23.02541 | 116.42255 | 33020 ft | 473 kts | 33° |
| 2026-05-07 12:10 | 23.07784 | 116.46581 | 33019 ft | 473 kts | 34° |
| 2026-05-07 12:11 | 23.13018 | 116.50912 | 33017 ft | 472 kts | 34° |
| 2026-05-07 12:11 | 23.18249 | 116.55244 | 33015 ft | 473 kts | 33° |
| 2026-05-07 12:12 | 23.23480 | 116.59583 | 33018 ft | 473 kts | 33° |
| 2026-05-07 12:12 | 23.28740 | 116.63953 | 33022 ft | 474 kts | 33° |
| 2026-05-07 12:13 | 23.33995 | 116.68321 | 33023 ft | 475 kts | 34° |
| 2026-05-07 12:13 | 23.39271 | 116.72710 | 33024 ft | 476 kts | 34° |
| 2026-05-07 12:14 | 23.44409 | 116.77296 | 33025 ft | 479 kts | 39° |
| 2026-05-07 12:14 | 23.49140 | 116.82414 | 33027 ft | 482 kts | 43° |
| 2026-05-07 12:15 | 23.53752 | 116.87665 | 33026 ft | 482 kts | 43° |
| 2026-05-07 12:15 | 23.58400 | 116.92960 | 33028 ft | 481 kts | 43° |
| 2026-05-07 12:16 | 23.63017 | 116.98216 | 33028 ft | 484 kts | 43° |
| 2026-05-07 12:16 | 23.67693 | 117.03541 | 33026 ft | 484 kts | 43° |
| 2026-05-07 12:17 | 23.72328 | 117.08826 | 33028 ft | 485 kts | 43° |
| 2026-05-07 12:17 | 23.77049 | 117.14088 | 33028 ft | 483 kts | 40° |
| 2026-05-07 12:18 | 23.82017 | 117.18985 | 33031 ft | 483 kts | 38° |
| 2026-05-07 12:18 | 23.87048 | 117.23878 | 33033 ft | 484 kts | 38° |
| 2026-05-07 12:19 | 23.92069 | 117.28775 | 33039 ft | 485 kts | 38° |
| 2026-05-07 12:19 | 24.09570 | 117.45915 | 33136 ft | 486 kts | 38° |
| 2026-05-07 12:20 | 24.16257 | 117.52963 | 33091 ft | 489 kts | 43° |
| 2026-05-07 12:20 | 24.20827 | 117.58444 | 33067 ft | 489 kts | 44° |
| 2026-05-07 12:21 | 24.51273 | 117.95147 | 33004 ft | 489 kts | 44° |
| 2026-05-07 12:21 | 25.26574 | 118.82239 | 33179 ft | 489 kts | 45° |
| 2026-05-07 12:21 | 25.31519 | 118.88481 | 33002 ft | 489 kts | 45° |
| 2026-05-07 12:22 | 25.33760 | 118.91290 | 33024 ft | 490 kts | 45° |
| 2026-05-07 12:22 | 25.38402 | 118.96800 | 33042 ft | 489 kts | 42° |
| 2026-05-07 12:23 | 25.43077 | 119.02216 | 33053 ft | 488 kts | 43° |
| 2026-05-07 12:23 | 25.47765 | 119.07675 | 33057 ft | 488 kts | 43° |
| 2026-05-07 12:24 | 25.52418 | 119.13122 | 33053 ft | 488 kts | 43° |
| 2026-05-07 12:24 | 25.57107 | 119.18613 | 33050 ft | 490 kts | 43° |
| 2026-05-07 12:25 | 25.61792 | 119.24120 | 33047 ft | 491 kts | 43° |
| 2026-05-07 12:25 | 25.66473 | 119.29623 | 33053 ft | 490 kts | 42° |
| 2026-05-07 12:26 | 25.71458 | 119.34668 | 33056 ft | 484 kts | 33° |
| 2026-05-07 12:26 | 25.77077 | 119.38698 | 33059 ft | 479 kts | 23° |
| 2026-05-07 12:27 | 25.83170 | 119.41620 | 33052 ft | 473 kts | 13° |
| 2026-05-07 12:27 | 25.89482 | 119.43793 | 33043 ft | 472 kts | 12° |
| 2026-05-07 12:28 | 25.95781 | 119.45901 | 33034 ft | 472 kts | 12° |
| 2026-05-07 12:28 | 26.02077 | 119.48031 | 33032 ft | 471 kts | 12° |
| 2026-05-07 12:29 | 26.08337 | 119.50163 | 33032 ft | 473 kts | 12° |
| 2026-05-07 12:29 | 26.14621 | 119.52306 | 33039 ft | 473 kts | 12° |
| 2026-05-07 12:30 | 26.20816 | 119.54858 | 33040 ft | 477 kts | 18° |
| 2026-05-07 12:30 | 26.26811 | 119.58200 | 33046 ft | 482 kts | 25° |
| 2026-05-07 12:31 | 26.32503 | 119.62109 | 33048 ft | 484 kts | 27° |
| 2026-05-07 12:31 | 26.38198 | 119.66135 | 33045 ft | 484 kts | 27° |
| 2026-05-07 12:32 | 26.43921 | 119.70161 | 33054 ft | 485 kts | 27° |
| 2026-05-07 12:32 | 26.49490 | 119.74065 | 33055 ft | 485 kts | 27° |
| 2026-05-07 12:33 | 26.58081 | 119.80084 | 33066 ft | 486 kts | 27° |
| 2026-05-07 12:33 | 26.63780 | 119.84090 | 33065 ft | 487 kts | 27° |
| 2026-05-07 12:34 | 26.69514 | 119.88128 | 33064 ft | 485 kts | 27° |
| 2026-05-07 12:34 | 26.75252 | 119.92174 | 33063 ft | 486 kts | 27° |
| 2026-05-07 12:35 | 26.80954 | 119.96200 | 33065 ft | 485 kts | 27° |
| 2026-05-07 12:35 | 26.86642 | 120.00220 | 33071 ft | 485 kts | 27° |
| 2026-05-07 12:36 | 26.92375 | 120.04273 | 33082 ft | 487 kts | 27° |
| 2026-05-07 12:36 | 26.98097 | 120.08331 | 33091 ft | 486 kts | 27° |
| 2026-05-07 12:37 | 27.03796 | 120.12377 | 33094 ft | 488 kts | 27° |
| 2026-05-07 12:37 | 27.09524 | 120.16454 | 33084 ft | 487 kts | 27° |
| 2026-05-07 12:38 | 27.15324 | 120.20573 | 33080 ft | 490 kts | 26° |
| 2026-05-07 12:38 | 27.21100 | 120.24638 | 33076 ft | 491 kts | 26° |
| 2026-05-07 12:39 | 27.26897 | 120.28725 | 33065 ft | 493 kts | 26° |
| 2026-05-07 12:39 | 27.32707 | 120.32843 | 33065 ft | 492 kts | 26° |
| 2026-05-07 12:40 | 27.38481 | 120.36932 | 33072 ft | 494 kts | 26° |
| 2026-05-07 12:40 | 27.44322 | 120.41080 | 33077 ft | 495 kts | 26° |
| 2026-05-07 12:41 | 27.50147 | 120.45225 | 33073 ft | 494 kts | 26° |
| 2026-05-07 12:41 | 27.55933 | 120.49351 | 33072 ft | 496 kts | 26° |
| 2026-05-07 12:42 | 27.61742 | 120.53500 | 33067 ft | 494 kts | 26° |
| 2026-05-07 12:42 | 27.67529 | 120.57726 | 33052 ft | 499 kts | 31° |
| 2026-05-07 12:43 | 27.72606 | 120.63238 | 33058 ft | 513 kts | 47° |
| 2026-05-07 12:43 | 27.76260 | 120.70144 | 33054 ft | 522 kts | 64° |
| 2026-05-07 12:44 | 27.78358 | 120.78083 | 33057 ft | 527 kts | 75° |
| 2026-05-07 12:44 | 27.79956 | 120.86128 | 33052 ft | 526 kts | 76° |
| 2026-05-07 12:45 | 27.81590 | 120.94182 | 33048 ft | 527 kts | 75° |
| 2026-05-07 12:45 | 27.83254 | 121.02185 | 33043 ft | 525 kts | 74° |
| 2026-05-07 12:46 | 27.84937 | 121.10220 | 33053 ft | 525 kts | 75° |
| 2026-05-07 12:46 | 27.86611 | 121.18265 | 33059 ft | 526 kts | 74° |
| 2026-05-07 12:47 | 27.88272 | 121.26273 | 33059 ft | 525 kts | 75° |
| 2026-05-07 12:47 | 27.89942 | 121.34280 | 33056 ft | 525 kts | 75° |
| 2026-05-07 12:48 | 27.91607 | 121.42329 | 33061 ft | 526 kts | 75° |
| 2026-05-07 12:48 | 27.93257 | 121.50317 | 33060 ft | 526 kts | 75° |
| 2026-05-07 12:49 | 27.94908 | 121.58363 | 33066 ft | 526 kts | 75° |
| 2026-05-07 12:49 | 27.96559 | 121.66425 | 33063 ft | 527 kts | 75° |
| 2026-05-07 12:50 | 27.98347 | 121.74384 | 33056 ft | 524 kts | 68° |
| 2026-05-07 12:50 | 28.01818 | 121.81632 | 33067 ft | 516 kts | 48° |
| 2026-05-07 12:51 | 28.06928 | 121.87180 | 33061 ft | 502 kts | 29° |
| 2026-05-07 12:51 | 28.12999 | 121.90993 | 33054 ft | 495 kts | 20° |
| 2026-05-07 12:52 | 28.19133 | 121.94441 | 33052 ft | 494 kts | 20° |
| 2026-05-07 12:52 | 28.25316 | 121.97959 | 33052 ft | 496 kts | 20° |
| 2026-05-07 12:53 | 28.31502 | 122.01524 | 33051 ft | 496 kts | 20° |
| 2026-05-07 12:53 | 28.37658 | 122.05093 | 33052 ft | 495 kts | 20° |
| 2026-05-07 12:54 | 28.43817 | 122.08668 | 33053 ft | 497 kts | 20° |
| 2026-05-07 12:54 | 28.49971 | 122.12247 | 33056 ft | 496 kts | 20° |
| 2026-05-07 12:55 | 28.56129 | 122.15832 | 33056 ft | 497 kts | 20° |
| 2026-05-07 12:55 | 28.62311 | 122.19435 | 33057 ft | 496 kts | 20° |
| 2026-05-07 12:56 | 28.68476 | 122.23032 | 33058 ft | 497 kts | 20° |
| 2026-05-07 12:56 | 28.74616 | 122.26625 | 33057 ft | 497 kts | 20° |
| 2026-05-07 12:57 | 28.80799 | 122.30243 | 33061 ft | 498 kts | 20° |
| 2026-05-07 12:57 | 28.86982 | 122.33868 | 33060 ft | 498 kts | 20° |
| 2026-05-07 12:58 | 28.93154 | 122.37492 | 33064 ft | 498 kts | 20° |
| 2026-05-07 12:58 | 28.99344 | 122.41132 | 33055 ft | 498 kts | 20° |
| 2026-05-07 12:59 | 29.05526 | 122.44776 | 33063 ft | 498 kts | 20° |
| 2026-05-07 12:59 | 29.11724 | 122.48392 | 33054 ft | 496 kts | 17° |
| 2026-05-07 13:00 | 29.18047 | 122.50836 | 33058 ft | 481 kts | 4° |
| 2026-05-07 13:00 | 29.24633 | 122.51635 | 33061 ft | 467 kts | 351° |
| 2026-05-07 13:01 | 29.31108 | 122.50833 | 33058 ft | 455 kts | 341° |
| 2026-05-07 13:01 | 29.37322 | 122.49384 | 33061 ft | 452 kts | 340° |
| 2026-05-07 13:02 | 29.43475 | 122.47929 | 33055 ft | 453 kts | 340° |
| 2026-05-07 13:02 | 29.49670 | 122.46479 | 33058 ft | 452 kts | 340° |
| 2026-05-07 13:03 | 29.55864 | 122.45037 | 33060 ft | 453 kts | 340° |
| 2026-05-07 13:03 | 29.62047 | 122.43598 | 33067 ft | 453 kts | 340° |
| 2026-05-07 13:04 | 29.68220 | 122.42160 | 33067 ft | 453 kts | 340° |
| 2026-05-07 13:04 | 29.74401 | 122.40720 | 33068 ft | 454 kts | 340° |
| 2026-05-07 13:05 | 29.80580 | 122.39276 | 33072 ft | 454 kts | 340° |
| 2026-05-07 13:05 | 29.86778 | 122.37844 | 33066 ft | 454 kts | 341° |
| 2026-05-07 13:06 | 29.93062 | 122.36903 | 33076 ft | 460 kts | 347° |
| 2026-05-07 13:06 | 29.99540 | 122.36728 | 33076 ft | 467 kts | 354° |
| 2026-05-07 13:07 | 30.06146 | 122.37110 | 33080 ft | 470 kts | 355° |
| 2026-05-07 13:07 | 30.12742 | 122.37543 | 33076 ft | 471 kts | 355° |
| 2026-05-07 13:08 | 30.19184 | 122.37960 | 33090 ft | 470 kts | 355° |
| 2026-05-07 13:08 | 30.25783 | 122.38374 | 33086 ft | 470 kts | 355° |
| 2026-05-07 13:09 | 30.32324 | 122.38721 | 33083 ft | 469 kts | 354° |
| 2026-05-07 13:09 | 30.38888 | 122.39056 | 33093 ft | 468 kts | 354° |
| 2026-05-07 13:10 | 30.45468 | 122.39401 | 33086 ft | 468 kts | 354° |
| 2026-05-07 13:10 | 30.52050 | 122.39748 | 33094 ft | 469 kts | 354° |
| 2026-05-07 13:11 | 30.58596 | 122.40095 | 33096 ft | 468 kts | 355° |
| 2026-05-07 13:11 | 30.65114 | 122.40454 | 33098 ft | 469 kts | 355° |
| 2026-05-07 13:12 | 30.71652 | 122.40825 | 33091 ft | 468 kts | 355° |
| 2026-05-07 13:12 | 30.78175 | 122.41194 | 33103 ft | 468 kts | 355° |
| 2026-05-07 13:13 | 30.84777 | 122.41570 | 33101 ft | 469 kts | 355° |
| 2026-05-07 13:13 | 30.91325 | 122.41943 | 33098 ft | 469 kts | 355° |
| 2026-05-07 13:14 | 30.97850 | 122.42316 | 33104 ft | 469 kts | 355° |
| 2026-05-07 13:14 | 31.04464 | 122.42687 | 33108 ft | 468 kts | 355° |
| 2026-05-07 13:15 | 31.11023 | 122.43052 | 33099 ft | 468 kts | 355° |
| 2026-05-07 13:15 | 31.17559 | 122.43420 | 33107 ft | 467 kts | 355° |
| 2026-05-07 13:16 | 31.24093 | 122.43790 | 33107 ft | 467 kts | 355° |
| 2026-05-07 13:16 | 31.30586 | 122.44155 | 33116 ft | 465 kts | 355° |
| 2026-05-07 13:17 | 31.37040 | 122.44450 | 33119 ft | 461 kts | 352° |
| 2026-05-07 13:17 | 31.43418 | 122.43958 | 33119 ft | 453 kts | 345° |
| 2026-05-07 13:18 | 31.49577 | 122.42542 | 33125 ft | 445 kts | 338° |
| 2026-05-07 13:18 | 31.55417 | 122.40292 | 33126 ft | 440 kts | 332° |
| 2026-05-07 13:19 | 31.61136 | 122.37701 | 33129 ft | 437 kts | 332° |
| 2026-05-07 13:19 | 31.66817 | 122.35102 | 33132 ft | 436 kts | 332° |
| 2026-05-07 13:20 | 31.72513 | 122.32490 | 33134 ft | 435 kts | 332° |
| 2026-05-07 13:20 | 31.78113 | 122.29791 | 33140 ft | 432 kts | 329° |
| 2026-05-07 13:21 | 31.83702 | 122.26991 | 33144 ft | 434 kts | 332° |
| 2026-05-07 13:21 | 31.89368 | 122.24417 | 33141 ft | 434 kts | 332° |
| 2026-05-07 13:22 | 31.95045 | 122.21857 | 33143 ft | 434 kts | 332° |
| 2026-05-07 13:22 | 32.00695 | 122.19303 | 33151 ft | 432 kts | 332° |
| 2026-05-07 13:23 | 32.06309 | 122.16760 | 33146 ft | 431 kts | 332° |
| 2026-05-07 13:23 | 32.11944 | 122.14202 | 33149 ft | 431 kts | 332° |
| 2026-05-07 13:24 | 32.17554 | 122.11654 | 33151 ft | 432 kts | 332° |
| 2026-05-07 13:24 | 32.23129 | 122.09119 | 33154 ft | 432 kts | 332° |
| 2026-05-07 13:25 | 32.28748 | 122.06560 | 33154 ft | 432 kts | 332° |
| 2026-05-07 13:25 | 32.34351 | 122.04004 | 33158 ft | 432 kts | 332° |
| 2026-05-07 13:26 | 32.39951 | 122.01447 | 33159 ft | 432 kts | 332° |
| 2026-05-07 13:26 | 32.45582 | 121.98870 | 33157 ft | 432 kts | 331° |
| 2026-05-07 13:27 | 32.51178 | 121.96307 | 33158 ft | 432 kts | 332° |
| 2026-05-07 13:27 | 32.56775 | 121.93742 | 33163 ft | 433 kts | 331° |
| 2026-05-07 13:28 | 32.62374 | 121.91169 | 33165 ft | 433 kts | 331° |
| 2026-05-07 13:28 | 32.68009 | 121.88579 | 33166 ft | 433 kts | 331° |
| 2026-05-07 13:29 | 32.73616 | 121.85998 | 33170 ft | 433 kts | 331° |
| 2026-05-07 13:29 | 32.79211 | 121.83418 | 33170 ft | 433 kts | 331° |
| 2026-05-07 13:30 | 32.84826 | 121.80827 | 33176 ft | 433 kts | 331° |
| 2026-05-07 13:30 | 32.90430 | 121.78236 | 33170 ft | 433 kts | 331° |
| 2026-05-07 13:31 | 32.96080 | 121.75622 | 33170 ft | 433 kts | 331° |
| 2026-05-07 13:31 | 33.01675 | 121.73027 | 33178 ft | 434 kts | 331° |
| 2026-05-07 13:32 | 33.07291 | 121.70422 | 33174 ft | 433 kts | 331° |
| 2026-05-07 13:32 | 33.12909 | 121.67811 | 33178 ft | 433 kts | 330° |
| 2026-05-07 13:33 | 33.18529 | 121.65195 | 33184 ft | 433 kts | 330° |
| 2026-05-07 13:33 | 33.24153 | 121.62573 | 33181 ft | 433 kts | 330° |
| 2026-05-07 13:34 | 33.32489 | 121.58382 | 33181 ft | 432 kts | 328° |
| 2026-05-07 13:35 | 33.37990 | 121.55531 | 33182 ft | 432 kts | 328° |
| 2026-05-07 13:35 | 33.43488 | 121.52693 | 33188 ft | 431 kts | 328° |
| 2026-05-07 13:36 | 33.49019 | 121.49840 | 33187 ft | 432 kts | 328° |
| 2026-05-07 13:36 | 33.54546 | 121.46986 | 33190 ft | 431 kts | 328° |
| 2026-05-07 13:37 | 33.60039 | 121.44147 | 33186 ft | 431 kts | 328° |
| 2026-05-07 13:37 | 33.65531 | 121.41303 | 33190 ft | 432 kts | 328° |
| 2026-05-07 13:38 | 33.71128 | 121.38550 | 33199 ft | 434 kts | 330° |
| 2026-05-07 13:38 | 33.76746 | 121.35922 | 33198 ft | 434 kts | 330° |
| 2026-05-07 13:39 | 33.82373 | 121.33276 | 33196 ft | 434 kts | 329° |
| 2026-05-07 13:39 | 33.87951 | 121.30637 | 33205 ft | 433 kts | 329° |
| 2026-05-07 13:40 | 33.93569 | 121.27977 | 33203 ft | 434 kts | 329° |
| 2026-05-07 13:40 | 33.99179 | 121.25312 | 33206 ft | 432 kts | 329° |
| 2026-05-07 13:41 | 34.04760 | 121.22658 | 33208 ft | 431 kts | 329° |
| 2026-05-07 13:41 | 34.10316 | 121.20010 | 33208 ft | 429 kts | 329° |
| 2026-05-07 13:42 | 34.15903 | 121.17346 | 33207 ft | 430 kts | 328° |
| 2026-05-07 13:42 | 34.21461 | 121.14688 | 33208 ft | 429 kts | 329° |
| 2026-05-07 13:43 | 34.26992 | 121.12043 | 33208 ft | 429 kts | 328° |
| 2026-05-07 13:43 | 34.32532 | 121.09387 | 33208 ft | 430 kts | 328° |
| 2026-05-07 13:44 | 34.38084 | 121.06725 | 33209 ft | 427 kts | 328° |
| 2026-05-07 13:44 | 34.43611 | 121.04068 | 33210 ft | 426 kts | 328° |
| 2026-05-07 13:45 | 34.49078 | 121.01440 | 33211 ft | 426 kts | 328° |
| 2026-05-07 13:45 | 34.54583 | 120.98784 | 33209 ft | 425 kts | 328° |
| 2026-05-07 13:46 | 34.60062 | 120.96140 | 33211 ft | 423 kts | 328° |
| 2026-05-07 13:46 | 34.65515 | 120.93505 | 33210 ft | 422 kts | 328° |
| 2026-05-07 13:47 | 34.71009 | 120.90844 | 33211 ft | 422 kts | 328° |
| 2026-05-07 13:47 | 34.76477 | 120.88194 | 33215 ft | 421 kts | 328° |
| 2026-05-07 13:48 | 34.81894 | 120.85567 | 33216 ft | 421 kts | 328° |
| 2026-05-07 13:48 | 34.87339 | 120.82918 | 33219 ft | 421 kts | 328° |
| 2026-05-07 13:49 | 34.92763 | 120.80282 | 33219 ft | 419 kts | 328° |
| 2026-05-07 13:49 | 34.98187 | 120.77637 | 33218 ft | 418 kts | 327° |
| 2026-05-07 13:50 | 35.03600 | 120.74993 | 33217 ft | 419 kts | 328° |
| 2026-05-07 13:50 | 35.09015 | 120.72346 | 33223 ft | 418 kts | 327° |
| 2026-05-07 13:51 | 35.14389 | 120.69717 | 33224 ft | 417 kts | 328° |
| 2026-05-07 13:51 | 35.19770 | 120.67098 | 33230 ft | 416 kts | 327° |
| 2026-05-07 13:52 | 35.25159 | 120.64486 | 33229 ft | 416 kts | 328° |
| 2026-05-07 13:52 | 35.30501 | 120.61889 | 33226 ft | 415 kts | 327° |
| 2026-05-07 13:53 | 35.35849 | 120.59286 | 33231 ft | 415 kts | 327° |
| 2026-05-07 13:53 | 35.41221 | 120.56680 | 33226 ft | 413 kts | 327° |
| 2026-05-07 13:54 | 35.46555 | 120.54105 | 33233 ft | 413 kts | 327° |
| 2026-05-07 13:54 | 35.51905 | 120.51508 | 33237 ft | 412 kts | 327° |
| 2026-05-07 13:55 | 35.57211 | 120.48918 | 33238 ft | 411 kts | 327° |
| 2026-05-07 13:55 | 35.62506 | 120.46336 | 33240 ft | 409 kts | 327° |
| 2026-05-07 13:56 | 35.67801 | 120.43747 | 33235 ft | 408 kts | 327° |
| 2026-05-07 13:56 | 35.73055 | 120.41178 | 33236 ft | 408 kts | 327° |
| 2026-05-07 13:57 | 35.78331 | 120.38594 | 33234 ft | 407 kts | 327° |
| 2026-05-07 13:57 | 35.83594 | 120.36009 | 33241 ft | 407 kts | 327° |
| 2026-05-07 13:58 | 35.88829 | 120.33455 | 33242 ft | 408 kts | 327° |
| 2026-05-07 13:58 | 35.94402 | 120.31542 | 33237 ft | 422 kts | 336° |
| 2026-05-07 13:59 | 36.00330 | 120.30762 | 33244 ft | 437 kts | 345° |
| 2026-05-07 13:59 | 36.06511 | 120.31256 | 33238 ft | 457 kts | 354° |
| 2026-05-07 14:00 | 36.12791 | 120.32777 | 33235 ft | 463 kts | 358° |
| 2026-05-07 14:00 | 36.19106 | 120.34453 | 33235 ft | 464 kts | 357° |
| 2026-05-07 14:01 | 36.25417 | 120.36105 | 33233 ft | 464 kts | 357° |
| 2026-05-07 14:01 | 36.31743 | 120.38083 | 33235 ft | 475 kts | 2° |
| 2026-05-07 14:02 | 36.38071 | 120.40506 | 33231 ft | 476 kts | 2° |
| 2026-05-07 14:02 | 36.44398 | 120.42969 | 33235 ft | 477 kts | 2° |
| 2026-05-07 14:03 | 36.50626 | 120.45383 | 33230 ft | 476 kts | 2° |
| 2026-05-07 14:03 | 36.56954 | 120.47829 | 33229 ft | 478 kts | 2° |
| 2026-05-07 14:04 | 36.63283 | 120.50435 | 33223 ft | 482 kts | 3° |
| 2026-05-07 14:04 | 36.69648 | 120.53171 | 33226 ft | 484 kts | 3° |
| 2026-05-07 14:05 | 36.75997 | 120.55888 | 33227 ft | 483 kts | 3° |
| 2026-05-07 14:05 | 36.82314 | 120.58591 | 33223 ft | 481 kts | 2° |
| 2026-05-07 14:06 | 36.88642 | 120.61282 | 33224 ft | 480 kts | 1° |
| 2026-05-07 14:06 | 36.95029 | 120.63427 | 33220 ft | 469 kts | 355° |
| 2026-05-07 14:07 | 37.01397 | 120.64766 | 33214 ft | 457 kts | 352° |
| 2026-05-07 14:07 | 37.07706 | 120.65910 | 33209 ft | 458 kts | 352° |
| 2026-05-07 14:08 | 37.13942 | 120.67056 | 33212 ft | 461 kts | 352° |
| 2026-05-07 14:08 | 37.20287 | 120.68232 | 33207 ft | 462 kts | 353° |
| 2026-05-07 14:09 | 37.26618 | 120.69422 | 33203 ft | 459 kts | 353° |
| 2026-05-07 14:09 | 37.32922 | 120.70609 | 33212 ft | 460 kts | 353° |
| 2026-05-07 14:10 | 37.39252 | 120.71797 | 33205 ft | 460 kts | 353° |
| 2026-05-07 14:10 | 37.45643 | 120.73003 | 33200 ft | 459 kts | 354° |
| 2026-05-07 14:11 | 37.51949 | 120.74199 | 33198 ft | 462 kts | 354° |
| 2026-05-07 14:11 | 37.58314 | 120.75382 | 33199 ft | 458 kts | 353° |
| 2026-05-07 14:12 | 37.64611 | 120.76194 | 33195 ft | 455 kts | 351° |
| 2026-05-07 14:12 | 37.70915 | 120.76928 | 33193 ft | 454 kts | 352° |
| 2026-05-07 14:13 | 37.77226 | 120.77675 | 33193 ft | 454 kts | 352° |
| 2026-05-07 14:13 | 37.83506 | 120.78428 | 33193 ft | 456 kts | 352° |
| 2026-05-07 14:14 | 37.89813 | 120.79185 | 33189 ft | 454 kts | 353° |
| 2026-05-07 14:14 | 37.96137 | 120.80427 | 33189 ft | 469 kts | 0° |
| 2026-05-07 14:15 | 38.02475 | 120.82824 | 33187 ft | 482 kts | 9° |
| 2026-05-07 14:15 | 38.08647 | 120.86446 | 33186 ft | 495 kts | 18° |
| 2026-05-07 14:16 | 38.14573 | 120.90889 | 33187 ft | 499 kts | 20° |
| 2026-05-07 14:16 | 38.20349 | 120.95908 | 33183 ft | 513 kts | 30° |
| 2026-05-07 14:17 | 38.25393 | 121.02535 | 33180 ft | 529 kts | 44° |
| 2026-05-07 14:17 | 38.27488 | 121.06384 | 33010 ft | 538 kts | 51° |
| 2026-05-07 14:17 | 38.29257 | 121.10589 | 32782 ft | 542 kts | 58° |
| 2026-05-07 14:17 | 38.30769 | 121.14960 | 32557 ft | 542 kts | 61° |
| 2026-05-07 14:18 | 38.32152 | 121.19413 | 32327 ft | 542 kts | 65° |
| 2026-05-07 14:18 | 38.33316 | 121.24023 | 32095 ft | 543 kts | 69° |
| 2026-05-07 14:18 | 38.34188 | 121.28657 | 31864 ft | 544 kts | 75° |
| 2026-05-07 14:18 | 38.34669 | 121.33450 | 31621 ft | 549 kts | 82° |
| 2026-05-07 14:19 | 38.34936 | 121.38261 | 31216 ft | 550 kts | 83° |
| 2026-05-07 14:19 | 38.35199 | 121.43111 | 30628 ft | 551 kts | 85° |
| 2026-05-07 14:19 | 38.35220 | 121.47971 | 29947 ft | 554 kts | 89° |
| 2026-05-07 14:19 | 38.35126 | 121.52889 | 29189 ft | 556 kts | 90° |
| 2026-05-07 14:20 | 38.35027 | 121.57769 | 28380 ft | 549 kts | 89° |
| 2026-05-07 14:20 | 38.34960 | 121.62500 | 27567 ft | 538 kts | 88° |
| 2026-05-07 14:20 | 38.34925 | 121.67230 | 26705 ft | 530 kts | 88° |
| 2026-05-07 14:20 | 38.34910 | 121.71884 | 25859 ft | 523 kts | 88° |
| 2026-05-07 14:21 | 38.34901 | 121.76416 | 25177 ft | 511 kts | 87° |
| 2026-05-07 14:21 | 38.34889 | 121.80836 | 24881 ft | 485 kts | 87° |
| 2026-05-07 14:21 | 38.34874 | 121.85037 | 24620 ft | 470 kts | 87° |
| 2026-05-07 14:21 | 38.34864 | 121.89156 | 24401 ft | 465 kts | 87° |
| 2026-05-07 14:22 | 38.34852 | 121.93256 | 24218 ft | 463 kts | 87° |
| 2026-05-07 14:22 | 38.34849 | 121.97330 | 24047 ft | 460 kts | 84° |
| 2026-05-07 14:22 | 38.35195 | 122.01315 | 23842 ft | 451 kts | 74° |
| 2026-05-07 14:22 | 38.36032 | 122.05087 | 23617 ft | 442 kts | 64° |
| 2026-05-07 14:23 | 38.37152 | 122.08712 | 23429 ft | 438 kts | 62° |
| 2026-05-07 14:23 | 38.38578 | 122.12096 | 23180 ft | 421 kts | 44° |
| 2026-05-07 14:23 | 38.40694 | 122.14445 | 22917 ft | 394 kts | 20° |
| 2026-05-07 14:23 | 38.43169 | 122.15454 | 22665 ft | 364 kts | 358° |
| 2026-05-07 14:24 | 38.45572 | 122.15082 | 22243 ft | 340 kts | 334° |
| 2026-05-07 14:24 | 38.47612 | 122.13669 | 21883 ft | 329 kts | 324° |
| 2026-05-07 14:24 | 38.49579 | 122.12219 | 21519 ft | 325 kts | 328° |
| 2026-05-07 14:24 | 38.51604 | 122.10957 | 21168 ft | 322 kts | 331° |
| 2026-05-07 14:25 | 38.53620 | 122.09743 | 20851 ft | 313 kts | 325° |
| 2026-05-07 14:25 | 38.55110 | 122.07855 | 20505 ft | 304 kts | 301° |
| 2026-05-07 14:25 | 38.55791 | 122.05339 | 20143 ft | 304 kts | 280° |
| 2026-05-07 14:25 | 38.55620 | 122.02641 | 19745 ft | 312 kts | 259° |
| 2026-05-07 14:26 | 38.54823 | 122.00047 | 19406 ft | 310 kts | 255° |
| 2026-05-07 14:26 | 38.54173 | 121.97491 | 19078 ft | 300 kts | 263° |
| 2026-05-07 14:26 | 38.53823 | 121.94907 | 18751 ft | 291 kts | 270° |
| 2026-05-07 14:26 | 38.53641 | 121.92367 | 18429 ft | 286 kts | 271° |
| 2026-05-07 14:27 | 38.53481 | 121.89863 | 18101 ft | 281 kts | 272° |
| 2026-05-07 14:27 | 38.53342 | 121.87402 | 17779 ft | 275 kts | 275° |
| 2026-05-07 14:27 | 38.53415 | 121.85007 | 17464 ft | 267 kts | 282° |
| 2026-05-07 14:27 | 38.53709 | 121.82702 | 17145 ft | 260 kts | 286° |
| 2026-05-07 14:28 | 38.54057 | 121.80473 | 16786 ft | 258 kts | 287° |
| 2026-05-07 14:28 | 38.54410 | 121.78239 | 16387 ft | 257 kts | 287° |
| 2026-05-07 14:28 | 38.54790 | 121.75987 | 15978 ft | 255 kts | 291° |
| 2026-05-07 14:28 | 38.55356 | 121.73872 | 15581 ft | 251 kts | 297° |
| 2026-05-07 14:29 | 38.56112 | 121.71873 | 15182 ft | 249 kts | 301° |
| 2026-05-07 14:29 | 38.56909 | 121.69922 | 14800 ft | 248 kts | 302° |
| 2026-05-07 14:29 | 38.57698 | 121.68002 | 14454 ft | 246 kts | 302° |
| 2026-05-07 14:29 | 38.58492 | 121.66082 | 14099 ft | 243 kts | 304° |
| 2026-05-07 14:30 | 38.59407 | 121.64302 | 13684 ft | 240 kts | 311° |
| 2026-05-07 14:30 | 38.60498 | 121.62696 | 13282 ft | 238 kts | 316° |
| 2026-05-07 14:30 | 38.61635 | 121.61182 | 12926 ft | 236 kts | 317° |
| 2026-05-07 14:30 | 38.62780 | 121.59666 | 12578 ft | 234 kts | 317° |
| 2026-05-07 14:31 | 38.63902 | 121.58183 | 12229 ft | 232 kts | 317° |
| 2026-05-07 14:31 | 38.65062 | 121.56753 | 11763 ft | 234 kts | 323° |
| 2026-05-07 14:31 | 38.66370 | 121.55534 | 11348 ft | 231 kts | 329° |
| 2026-05-07 14:31 | 38.67728 | 121.54515 | 10991 ft | 220 kts | 331° |
| 2026-05-07 14:32 | 38.69033 | 121.53558 | 10670 ft | 210 kts | 332° |
| 2026-05-07 14:32 | 38.70297 | 121.52683 | 10367 ft | 207 kts | 339° |
| 2026-05-07 14:32 | 38.71722 | 121.52428 | 10016 ft | 211 kts | 2° |
| 2026-05-07 14:32 | 38.73144 | 121.52992 | 9688 ft | 223 kts | 24° |
| 2026-05-07 14:33 | 38.74333 | 121.54386 | 9688 ft | 246 kts | 47° |
| 2026-05-07 14:33 | 38.75080 | 121.56428 | 9734 ft | 257 kts | 59° |
| 2026-05-07 14:33 | 38.75749 | 121.58579 | 9718 ft | 258 kts | 58° |
| 2026-05-07 14:33 | 38.76411 | 121.60706 | 9354 ft | 259 kts | 59° |
| 2026-05-07 14:34 | 38.77071 | 121.62852 | 8991 ft | 258 kts | 59° |
| 2026-05-07 14:34 | 38.77723 | 121.64983 | 8638 ft | 257 kts | 59° |
| 2026-05-07 14:34 | 38.78363 | 121.67082 | 8303 ft | 254 kts | 59° |
| 2026-05-07 14:34 | 38.79004 | 121.69189 | 7974 ft | 252 kts | 60° |
| 2026-05-07 14:35 | 38.79636 | 121.71275 | 7651 ft | 250 kts | 60° |
| 2026-05-07 14:35 | 38.80263 | 121.73338 | 7325 ft | 248 kts | 60° |
| 2026-05-07 14:35 | 38.80884 | 121.75388 | 7001 ft | 245 kts | 60° |
| 2026-05-07 14:35 | 38.81498 | 121.77412 | 6682 ft | 244 kts | 60° |
| 2026-05-07 14:36 | 38.82104 | 121.79414 | 6372 ft | 241 kts | 60° |
| 2026-05-07 14:36 | 38.82709 | 121.81418 | 6059 ft | 238 kts | 60° |
| 2026-05-07 14:36 | 38.83298 | 121.83367 | 5751 ft | 236 kts | 60° |
| 2026-05-07 14:36 | 38.83884 | 121.85308 | 5448 ft | 233 kts | 60° |
| 2026-05-07 14:37 | 38.84578 | 121.87157 | 5101 ft | 223 kts | 42° |
| 2026-05-07 14:37 | 38.87161 | 121.88445 | 4436 ft | 197 kts | 1° |
| 2026-05-07 14:37 | 38.88488 | 121.88600 | 4168 ft | 185 kts | 2° |
| 2026-05-07 14:38 | 38.89728 | 121.88763 | 3785 ft | 177 kts | 2° |
| 2026-05-07 14:38 | 38.90937 | 121.88919 | 3390 ft | 171 kts | 3° |
| 2026-05-07 14:38 | 38.92098 | 121.89015 | 2992 ft | 164 kts | 352° |
| 2026-05-07 14:38 | 38.93101 | 121.88489 | 2647 ft | 157 kts | 325° |
| 2026-05-07 14:39 | 38.93786 | 121.87408 | 2261 ft | 160 kts | 300° |
| 2026-05-07 14:39 | 38.94042 | 121.86003 | 1919 ft | 160 kts | 282° |
| 2026-05-07 14:39 | 38.94152 | 121.84659 | 1842 ft | 148 kts | 281° |
| 2026-05-07 14:39 | 38.94262 | 121.83347 | 1850 ft | 148 kts | 283° |
| 2026-05-07 14:40 | 38.94394 | 121.82021 | 1852 ft | 149 kts | 283° |
| 2026-05-07 14:40 | 38.94517 | 121.80711 | 1854 ft | 148 kts | 282° |
| 2026-05-07 14:40 | 38.94633 | 121.79401 | 1854 ft | 148 kts | 282° |
| 2026-05-07 14:40 | 38.94742 | 121.78069 | 1853 ft | 149 kts | 281° |
| 2026-05-07 14:41 | 38.94844 | 121.76750 | 1855 ft | 149 kts | 281° |
| 2026-05-07 14:41 | 38.94944 | 121.75419 | 1856 ft | 149 kts | 281° |
| 2026-05-07 14:41 | 38.95042 | 121.74098 | 1857 ft | 150 kts | 281° |
| 2026-05-07 14:41 | 38.95139 | 121.72763 | 1853 ft | 149 kts | 281° |
| 2026-05-07 14:42 | 38.95236 | 121.71439 | 1854 ft | 149 kts | 281° |
| 2026-05-07 14:42 | 38.95334 | 121.70113 | 1858 ft | 149 kts | 281° |
| 2026-05-07 14:42 | 38.95432 | 121.68797 | 1857 ft | 149 kts | 281° |
| 2026-05-07 14:42 | 38.95530 | 121.67477 | 1853 ft | 149 kts | 281° |
| 2026-05-07 14:43 | 38.95626 | 121.66179 | 1773 ft | 142 kts | 281° |
| 2026-05-07 14:43 | 38.95718 | 121.64934 | 1604 ft | 139 kts | 281° |
| 2026-05-07 14:43 | 38.95814 | 121.63702 | 1406 ft | 138 kts | 280° |
| 2026-05-07 14:43 | 38.95908 | 121.62472 | 1216 ft | 138 kts | 279° |
| 2026-05-07 14:44 | 38.96002 | 121.61241 | 1024 ft | 138 kts | 279° |
| 2026-05-07 14:44 | 38.96095 | 121.60033 | 846 ft | 137 kts | 278° |
| 2026-05-07 14:44 | 38.96186 | 121.58817 | 666 ft | 137 kts | 278° |
| 2026-05-07 14:44 | 38.96289 | 121.57591 | 482 ft | 136 kts | 278° |
| 2026-05-07 14:45 | 38.96384 | 121.56380 | 298 ft | 136 kts | 277° |
| 2026-05-07 14:45 | 38.96469 | 121.55175 | 119 ft | 135 kts | 276° |
| 2026-05-07 14:45 | 38.96547 | 121.54136 | 113 ft | 94 kts | 275° |
| 2026-05-07 14:45 | 38.96592 | 121.53519 | 113 ft | 42 kts | 269° |
| 2026-05-07 14:46 | 38.96561 | 121.53279 | 113 ft | 23 kts | 249° |
| 2026-05-07 14:46 | 38.96497 | 121.53100 | 113 ft | 20 kts | 238° |
| 2026-05-07 14:46 | 38.96424 | 121.53157 | 113 ft | 17 kts | 101° |
| 2026-05-07 14:46 | 38.96430 | 121.53307 | 113 ft | 16 kts | 88° |
| 2026-05-07 14:47 | 38.96421 | 121.53378 | 113 ft | 7 kts | 122° |
| 2026-05-07 14:47 | 38.96376 | 121.53418 | 113 ft | 8 kts | 166° |
| 2026-05-07 14:47 | 38.96323 | 121.53404 | 113 ft | 5 kts | 198° |
| 2026-05-07 14:47 | 38.96283 | 121.53397 | 113 ft | 6 kts | 184° |
| 2026-05-07 14:48 | 38.96268 | 121.53395 | 113 ft | 1 kts | 182° |
| 2026-05-07 14:48 | 38.96261 | 121.53395 | 113 ft | 0 kts | 182° |